CheckWX is a tool to help pilots better visualize weather data.  It is not intended as a substitute for an official pre-flight weather briefing.

19:59:05 UTC

KFWB METAR
Branson West Municipal - Emerson Field Airport
Branson West, Missouri, USA
Current

44 mins ago

KFWB 161915Z AUTO 11009G16KT 10SM CLR 10/00 A3000 RMK AO2 PWINO PNO
Observed
Feb-16 @ 19:15 UTC
Wind
  • 110° at 9 KTS
  • Gusting to 16 KTS
Visibility
10 SM
Flight Rules
VFR
Cloud Levels
  • Clear skies
Temperature
10°C / 50°F
Dewpoint
C / 32°F
Humidity
50%
Altimeter
30" Hg
Pressure
1015.92 hPa
Previous

1 hour ago

KFWB 161855Z AUTO 13008G14KT 10SM SCT045 09/00 A3002 RMK AO2 PWINO PNO
Observed
Feb-16 @ 18:55 UTC
Wind
  • 130° at 8 KTS
  • Gusting to 14 KTS
Visibility
10 SM
Flight Rules
VFR
Cloud Levels
  • Scattered at 4,500' AGL
Temperature
C / 48°F
Dewpoint
C / 32°F
Humidity
54%
Altimeter
30.02" Hg
Pressure
1016.62 hPa
Previous

1 hour ago

KFWB 161835Z AUTO 12009KT 10SM BKN045 09/00 A3005 RMK AO2 PWINO PNO
Observed
Feb-16 @ 18:35 UTC
Wind
  • 120° at 9 KTS
Visibility
10 SM
Flight Rules
VFR
Cloud Levels
  • Broken at 4,500' AGL
Temperature
C / 48°F
Dewpoint
C / 32°F
Humidity
54%
Altimeter
30.05" Hg
Pressure
1017.62 hPa